createdAt,value
2022-10-08T00:02:03.130Z,79.59
2022-10-08T00:04:32.332Z,80.03
2022-10-08T00:06:59.946Z,80.15
2022-10-08T00:09:32.187Z,80.35
2022-10-08T00:11:59.939Z,80.19
2022-10-08T00:14:28.509Z,80.07
2022-10-08T00:16:55.853Z,80.48
2022-10-08T00:19:22.952Z,80.28
2022-10-08T00:21:53.397Z,80.51
2022-10-08T00:24:24.431Z,80.77
2022-10-08T00:26:52.689Z,80.24
2022-10-08T00:29:23.574Z,80.66
2022-10-08T00:31:51.735Z,81.02
2022-10-08T00:34:26.478Z,81.06
2022-10-08T00:36:54.821Z,81.05
2022-10-08T00:39:26.725Z,80.21
2022-10-08T00:41:54.723Z,80.65
2022-10-08T00:44:40.822Z,80.14
2022-10-08T00:47:23.495Z,80.50
2022-10-08T00:49:51.703Z,80.59
2022-10-08T00:52:19.787Z,80.24
2022-10-08T00:54:49.052Z,80.75
2022-10-08T00:57:16.437Z,80.84
2022-10-08T00:59:43.457Z,80.44
2022-10-08T01:02:13.628Z,80.68
2022-10-08T01:04:42.987Z,80.70
2022-10-08T01:07:32.460Z,80.33
2022-10-08T01:10:06.195Z,80.28
2022-10-08T01:12:51.999Z,80.92
2022-10-08T01:15:20.285Z,79.83
2022-10-08T01:17:52.966Z,80.04
2022-10-08T01:20:29.533Z,79.83
2022-10-08T01:22:56.463Z,80.52
2022-10-08T01:25:35.755Z,79.70
2022-10-08T01:28:10.193Z,79.86
2022-10-08T01:30:40.195Z,79.99
2022-10-08T01:33:14.389Z,80.35
2022-10-08T01:35:45.001Z,79.89
2022-10-08T01:38:15.073Z,79.72
2022-10-08T01:40:44.099Z,80.30
2022-10-08T01:43:13.430Z,80.33
2022-10-08T01:45:42.499Z,80.62
2022-10-08T01:48:15.027Z,80.85
2022-10-08T01:50:45.082Z,80.47
2022-10-08T01:53:15.321Z,80.42
2022-10-08T01:55:44.984Z,80.39
2022-10-08T01:58:19.561Z,80.11
2022-10-08T02:00:48.145Z,79.60
2022-10-08T02:03:15.484Z,80.23
2022-10-08T02:05:46.157Z,79.86
2022-10-08T02:08:13.443Z,80.43
2022-10-08T02:10:40.921Z,80.30
2022-10-08T02:13:08.726Z,80.21
2022-10-08T02:15:43.965Z,80.22
2022-10-08T02:18:13.505Z,80.20
2022-10-08T02:21:00.754Z,80.61
2022-10-08T02:23:47.037Z,80.25
2022-10-08T02:26:17.281Z,79.65
2022-10-08T02:28:50.422Z,79.69
2022-10-08T02:31:28.242Z,80.04
2022-10-08T02:33:58.120Z,80.05
2022-10-08T02:36:28.305Z,79.73
2022-10-08T02:39:01.618Z,79.96
2022-10-08T02:41:31.898Z,79.47
2022-10-08T02:44:00.662Z,79.19
2022-10-08T02:46:29.794Z,79.48
2022-10-08T02:49:02.982Z,80.09
2022-10-08T02:51:32.106Z,80.05
2022-10-08T02:53:59.533Z,79.95
2022-10-08T02:56:52.810Z,79.17
2022-10-08T02:59:21.081Z,79.55
2022-10-08T03:01:58.601Z,79.89
2022-10-08T03:04:51.955Z,79.59
2022-10-08T03:07:22.855Z,79.78
2022-10-08T03:09:52.256Z,79.68
2022-10-08T03:12:19.371Z,79.80
2022-10-08T03:14:48.346Z,79.86
2022-10-08T03:17:18.549Z,79.45
2022-10-08T03:19:45.538Z,79.75
2022-10-08T03:22:12.695Z,79.53
2022-10-08T03:24:39.623Z,79.12
2022-10-08T03:27:06.761Z,79.31
2022-10-08T03:29:33.709Z,79.27
2022-10-08T03:32:00.680Z,79.45
2022-10-08T03:34:27.813Z,79.25
2022-10-08T03:36:54.772Z,79.51
2022-10-08T03:39:21.776Z,79.45
2022-10-08T03:41:48.768Z,79.59
2022-10-08T03:44:15.813Z,79.21
2022-10-08T03:46:42.714Z,78.98
2022-10-08T03:49:10.469Z,79.19
2022-10-08T03:51:37.653Z,79.43
2022-10-08T03:54:04.670Z,79.28
2022-10-08T03:56:31.832Z,79.33
2022-10-08T03:58:59.818Z,79.29
2022-10-08T04:01:27.795Z,78.71
2022-10-08T04:03:54.976Z,79.11
2022-10-08T04:06:22.374Z,79.04
2022-10-08T04:08:49.379Z,78.84
2022-10-08T04:11:19.589Z,78.98
2022-10-08T04:13:46.515Z,78.79
2022-10-08T04:16:17.711Z,78.57
2022-10-08T04:18:45.686Z,78.69
2022-10-08T04:21:13.937Z,78.68
2022-10-08T04:23:41.615Z,78.51
2022-10-08T04:26:09.351Z,78.82
2022-10-08T04:28:40.273Z,79.06
2022-10-08T04:31:08.802Z,78.93
2022-10-08T04:33:36.376Z,78.49
2022-10-08T04:36:10.780Z,79.00
2022-10-08T04:38:37.744Z,78.52
2022-10-08T04:41:09.327Z,78.65
2022-10-08T04:43:37.268Z,78.72
2022-10-08T04:46:04.793Z,78.49
2022-10-08T04:48:32.221Z,78.32
2022-10-08T04:50:59.897Z,78.06
2022-10-08T04:53:27.262Z,78.66
2022-10-08T04:55:55.080Z,78.37
2022-10-08T04:58:23.330Z,78.31
2022-10-08T05:00:50.734Z,78.58
2022-10-08T05:03:17.721Z,78.22
2022-10-08T05:05:46.075Z,77.91
2022-10-08T05:08:12.999Z,78.31
2022-10-08T05:10:40.144Z,78.17
2022-10-08T05:13:07.164Z,78.13
2022-10-08T05:15:34.838Z,78.03
2022-10-08T05:18:01.861Z,78.14
2022-10-08T05:20:28.916Z,78.01
2022-10-08T05:22:56.157Z,77.80
2022-10-08T05:25:23.242Z,78.03
2022-10-08T05:27:50.172Z,77.62
2022-10-08T05:30:21.148Z,77.89
2022-10-08T05:32:49.590Z,77.60
2022-10-08T05:35:16.862Z,77.56
2022-10-08T05:37:43.901Z,77.64
2022-10-08T05:40:11.101Z,77.47
2022-10-08T05:42:38.041Z,77.19
2022-10-08T05:45:05.324Z,77.41
2022-10-08T05:47:32.313Z,77.30
2022-10-08T05:49:59.274Z,77.09
2022-10-08T05:52:27.266Z,77.11
2022-10-08T05:54:54.219Z,76.96
2022-10-08T05:57:21.390Z,76.75
2022-10-08T05:59:48.404Z,77.01
2022-10-08T06:02:15.446Z,76.83
2022-10-08T06:04:42.464Z,76.57
2022-10-08T06:07:09.502Z,76.25
2022-10-08T06:09:36.793Z,76.12
2022-10-08T06:12:03.860Z,75.80
2022-10-08T06:14:30.847Z,75.83
2022-10-08T06:16:57.890Z,75.54
2022-10-08T06:19:24.934Z,75.29
2022-10-08T06:21:51.967Z,75.07
2022-10-08T06:24:19.182Z,74.17
2022-10-08T06:26:46.260Z,73.73
2022-10-08T06:29:15.032Z,71.75
2022-10-08T06:31:42.106Z,70.85
2022-10-08T06:34:09.146Z,67.02
2022-10-08T06:36:37.748Z,64.96
2022-10-08T06:39:06.232Z,61.02
2022-10-08T06:41:35.120Z,59.93
2022-10-08T06:44:03.609Z,56.42
2022-10-08T06:46:32.641Z,53.65
2022-10-08T06:49:00.901Z,52.54
2022-10-08T06:51:27.921Z,54.96
2022-10-08T06:53:59.425Z,55.24
2022-10-08T06:56:28.701Z,56.47
2022-10-08T06:58:55.758Z,54.95
2022-10-08T07:01:32.562Z,52.16
2022-10-08T07:04:00.951Z,49.83
2022-10-08T07:06:28.955Z,48.65
2022-10-08T07:08:57.179Z,48.59
2022-10-08T07:11:24.686Z,47.88
2022-10-08T07:13:51.706Z,46.67
2022-10-08T07:16:21.332Z,46.19
2022-10-08T07:18:49.950Z,46.19
2022-10-08T07:21:18.040Z,47.65
2022-10-08T07:23:45.435Z,47.26
2022-10-08T07:26:13.787Z,48.38
2022-10-08T07:28:42.531Z,49.03
2022-10-08T07:31:14.738Z,46.30
2022-10-08T07:33:41.928Z,44.32
2022-10-08T07:36:09.041Z,43.86
2022-10-08T07:38:36.197Z,45.04
2022-10-08T07:41:03.086Z,45.96
2022-10-08T07:43:30.126Z,45.36
2022-10-08T07:45:57.310Z,46.22
2022-10-08T07:48:24.475Z,49.26
2022-10-08T07:50:51.473Z,50.70
2022-10-08T07:53:18.403Z,52.41
2022-10-08T07:55:45.348Z,52.59
2022-10-08T07:58:13.020Z,52.95
2022-10-08T08:00:40.560Z,52.18
2022-10-08T08:03:11.229Z,51.41
2022-10-08T08:05:38.146Z,48.31
2022-10-08T08:08:05.233Z,45.18
2022-10-08T08:10:32.166Z,44.11
2022-10-08T08:12:59.152Z,43.64
2022-10-08T08:15:26.116Z,45.11
2022-10-08T08:17:53.126Z,45.50
2022-10-08T08:20:20.070Z,46.92
2022-10-08T08:22:47.274Z,47.53
2022-10-08T08:25:14.635Z,48.85
2022-10-08T08:27:41.673Z,49.89
2022-10-08T08:30:09.074Z,50.27
2022-10-08T08:32:36.597Z,50.24
2022-10-08T08:35:03.877Z,50.34
2022-10-08T08:37:30.908Z,49.58
2022-10-08T08:39:58.027Z,48.80
2022-10-08T08:42:42.655Z,48.36
2022-10-08T08:45:45.863Z,47.64
2022-10-08T08:48:14.063Z,48.43
2022-10-08T08:50:46.694Z,48.15
2022-10-08T08:53:15.912Z,48.10
2022-10-08T08:55:45.243Z,48.18
2022-10-08T08:58:21.748Z,48.59
2022-10-08T09:00:58.075Z,48.88
2022-10-08T09:03:35.051Z,48.68
2022-10-08T09:06:06.071Z,48.61
2022-10-08T09:08:39.874Z,48.90
2022-10-08T09:11:07.133Z,48.88
2022-10-08T09:13:56.039Z,48.54
2022-10-08T09:16:23.269Z,48.67
2022-10-08T09:18:53.627Z,48.40
2022-10-08T09:21:20.670Z,48.58
2022-10-08T09:23:47.923Z,48.37
2022-10-08T09:26:15.619Z,48.21
2022-10-08T09:28:43.444Z,48.28
2022-10-08T09:31:22.056Z,47.95
2022-10-08T09:33:55.229Z,48.36
2022-10-08T09:36:52.137Z,48.74
2022-10-08T09:39:23.788Z,49.12
2022-10-08T09:42:09.507Z,49.07
2022-10-08T09:44:41.470Z,49.60
2022-10-08T09:47:12.798Z,49.93
2022-10-08T09:49:40.141Z,49.86
2022-10-08T09:52:26.163Z,50.15
2022-10-08T09:54:55.820Z,50.57
2022-10-08T09:57:23.216Z,50.88
2022-10-08T09:59:56.995Z,50.80
2022-10-08T10:02:29.006Z,50.90
2022-10-08T10:04:56.778Z,51.09
2022-10-08T10:07:24.386Z,51.15
2022-10-08T10:09:54.479Z,51.18
2022-10-08T10:12:24.716Z,51.40
2022-10-08T10:15:00.198Z,51.47
2022-10-08T10:17:33.176Z,51.28
2022-10-08T10:20:04.019Z,51.45
2022-10-08T10:22:40.159Z,51.37
2022-10-08T10:25:07.080Z,51.58
2022-10-08T10:27:41.197Z,51.86
2022-10-08T10:30:21.194Z,51.85
2022-10-08T10:32:58.680Z,51.92
2022-10-08T10:35:27.447Z,52.12
2022-10-08T10:38:00.182Z,52.17
2022-10-08T10:40:30.353Z,52.19
2022-10-08T10:43:15.670Z,52.38
2022-10-08T10:45:45.423Z,52.33
2022-10-08T10:48:13.980Z,52.13
2022-10-08T10:50:45.222Z,52.02
2022-10-08T10:53:28.970Z,51.97
2022-10-08T10:55:55.973Z,52.04
2022-10-08T10:58:22.960Z,52.02
2022-10-08T11:01:05.235Z,52.15
2022-10-08T11:03:40.657Z,52.24
2022-10-08T11:06:19.584Z,52.46
2022-10-08T11:08:56.518Z,52.58
2022-10-08T11:11:32.905Z,52.44
2022-10-08T11:14:16.983Z,52.54
2022-10-08T11:16:51.202Z,52.55
2022-10-08T11:19:34.641Z,52.73
2022-10-08T11:22:10.648Z,52.81
2022-10-08T11:24:48.145Z,53.06
2022-10-08T11:27:24.545Z,53.21
2022-10-08T11:29:59.937Z,53.17
2022-10-08T11:32:29.920Z,53.38
2022-10-08T11:35:12.699Z,53.39
2022-10-08T11:37:45.250Z,53.52
2022-10-08T11:40:30.516Z,52.97
2022-10-08T11:43:03.392Z,53.40
2022-10-08T11:45:40.287Z,53.38
2022-10-08T11:48:30.762Z,53.48
2022-10-08T11:51:16.300Z,53.50
2022-10-08T11:53:43.562Z,53.45
2022-10-08T11:56:12.831Z,53.50
2022-10-08T11:58:39.772Z,53.65
2022-10-08T12:01:08.012Z,53.70
2022-10-08T12:03:37.525Z,53.59
2022-10-08T12:06:18.606Z,53.52
2022-10-08T12:08:49.647Z,53.67
2022-10-08T12:11:32.026Z,53.65
2022-10-08T12:14:11.054Z,53.69
2022-10-08T12:16:56.230Z,53.61
2022-10-08T12:19:35.369Z,53.94
2022-10-08T12:22:03.985Z,54.10
2022-10-08T12:24:39.747Z,54.09
2022-10-08T12:27:18.810Z,54.00
2022-10-08T12:29:57.821Z,53.88
2022-10-08T12:32:25.812Z,54.15
2022-10-08T12:34:53.184Z,54.26
2022-10-08T12:37:23.158Z,54.25
2022-10-08T12:39:50.903Z,54.42
2022-10-08T12:42:38.093Z,54.55
2022-10-08T12:45:08.125Z,54.45
2022-10-08T12:47:49.162Z,54.30
2022-10-08T12:50:22.366Z,54.45
2022-10-08T12:52:49.517Z,54.65
2022-10-08T12:55:17.916Z,54.54
2022-10-08T12:57:47.464Z,54.45
2022-10-08T13:00:17.486Z,54.58
2022-10-08T13:02:44.944Z,54.65
2022-10-08T13:05:32.244Z,54.62
2022-10-08T13:08:17.350Z,55.00
2022-10-08T13:10:44.951Z,54.95
2022-10-08T13:13:32.011Z,55.29
2022-10-08T13:15:59.723Z,55.53
2022-10-08T13:18:28.785Z,55.69
2022-10-08T13:20:58.833Z,55.63
2022-10-08T13:23:31.996Z,55.55
2022-10-08T13:26:00.868Z,55.66
2022-10-08T13:28:58.637Z,55.74
2022-10-08T13:31:22.094Z,55.92
2022-10-08T13:33:49.162Z,56.01
2022-10-08T13:36:21.210Z,56.09
2022-10-08T13:38:48.385Z,56.18
2022-10-08T13:41:23.810Z,56.06
2022-10-08T13:43:51.422Z,56.12
2022-10-08T13:46:18.654Z,56.62
2022-10-08T13:48:45.693Z,56.73
2022-10-08T13:51:12.721Z,56.79
2022-10-08T13:53:42.293Z,56.31
2022-10-08T13:56:09.262Z,56.60
2022-10-08T13:58:36.217Z,56.98
2022-10-08T14:01:03.325Z,56.53
2022-10-08T14:03:30.483Z,56.71
2022-10-08T14:05:57.924Z,56.67
2022-10-08T14:08:26.676Z,57.05
2022-10-08T14:10:57.978Z,57.13
2022-10-08T14:13:25.118Z,57.14
2022-10-08T14:15:52.102Z,57.08
2022-10-08T14:18:19.269Z,57.58
2022-10-08T14:20:46.336Z,57.70
2022-10-08T14:23:14.279Z,57.74
2022-10-08T14:25:41.211Z,57.95
2022-10-08T14:28:08.241Z,57.94
2022-10-08T14:30:35.252Z,58.05
2022-10-08T14:33:04.058Z,57.74
2022-10-08T14:35:32.617Z,57.86
2022-10-08T14:37:59.584Z,57.98
2022-10-08T14:40:26.514Z,58.45
2022-10-08T14:42:53.550Z,58.43
2022-10-08T14:45:20.852Z,58.71
2022-10-08T14:47:48.000Z,58.89
2022-10-08T14:50:15.045Z,58.92
2022-10-08T14:52:44.588Z,59.10
2022-10-08T14:55:12.060Z,59.12
2022-10-08T14:57:39.055Z,58.99
2022-10-08T15:00:06.787Z,59.18
2022-10-08T15:02:34.608Z,59.43
2022-10-08T15:05:02.008Z,59.32
2022-10-08T15:07:31.069Z,59.42
2022-10-08T15:09:58.199Z,59.85
2022-10-08T15:12:25.409Z,59.95
2022-10-08T15:14:52.397Z,59.86
2022-10-08T15:17:19.335Z,60.07
2022-10-08T15:19:46.917Z,60.05
2022-10-08T15:22:13.821Z,60.28
2022-10-08T15:24:41.502Z,60.45
2022-10-08T15:27:08.490Z,60.64
2022-10-08T15:29:36.273Z,60.65
2022-10-08T15:32:03.394Z,60.68
2022-10-08T15:34:30.477Z,61.08
2022-10-08T15:36:57.522Z,60.96
2022-10-08T15:39:24.656Z,61.12
2022-10-08T15:41:53.152Z,61.26
2022-10-08T15:44:22.225Z,61.24
2022-10-08T15:46:50.826Z,61.55
2022-10-08T15:49:17.920Z,61.79
2022-10-08T15:51:45.400Z,62.29
2022-10-08T15:54:12.367Z,62.30
2022-10-08T15:56:39.732Z,62.43
2022-10-08T15:59:06.779Z,62.84
2022-10-08T16:01:33.820Z,62.67
2022-10-08T16:04:00.943Z,62.67
2022-10-08T16:06:30.002Z,62.97
2022-10-08T16:08:57.234Z,63.27
2022-10-08T16:11:26.337Z,63.70
2022-10-08T16:13:58.889Z,64.04
2022-10-08T16:16:26.417Z,63.58
2022-10-08T16:18:57.575Z,63.92
2022-10-08T16:21:24.804Z,64.27
2022-10-08T16:23:51.841Z,64.48
2022-10-08T16:26:22.286Z,64.17
2022-10-08T16:28:50.367Z,63.88
2022-10-08T16:31:18.050Z,63.70
2022-10-08T16:33:45.804Z,63.98
2022-10-08T16:36:13.197Z,63.86
2022-10-08T16:38:40.741Z,63.86
2022-10-08T16:41:10.752Z,63.79
2022-10-08T16:43:37.764Z,64.04
2022-10-08T16:46:04.923Z,63.98
2022-10-08T16:48:31.988Z,64.15
2022-10-08T16:51:02.148Z,64.01
2022-10-08T16:53:29.096Z,64.16
2022-10-08T16:55:56.083Z,64.34
2022-10-08T16:58:23.082Z,64.55
2022-10-08T17:00:50.046Z,64.64
2022-10-08T17:03:17.009Z,64.36
2022-10-08T17:05:43.949Z,64.49
2022-10-08T17:08:11.011Z,64.46
2022-10-08T17:10:38.068Z,64.49
2022-10-08T17:13:05.035Z,64.71
2022-10-08T17:15:32.006Z,64.72
2022-10-08T17:17:58.988Z,65.09
2022-10-08T17:20:26.091Z,65.03
2022-10-08T17:22:53.022Z,64.75
2022-10-08T17:25:20.087Z,64.82
2022-10-08T17:27:47.223Z,65.02
2022-10-08T17:30:14.507Z,65.19
2022-10-08T17:32:41.642Z,65.29
2022-10-08T17:35:08.864Z,65.46
2022-10-08T17:37:35.835Z,65.14
2022-10-08T17:40:02.764Z,65.44
2022-10-08T17:42:30.387Z,65.50
2022-10-08T17:44:57.363Z,65.43
2022-10-08T17:47:28.986Z,65.83
2022-10-08T17:49:56.407Z,65.57
2022-10-08T17:52:23.501Z,65.72
2022-10-08T17:54:50.493Z,66.00
2022-10-08T17:57:17.477Z,66.14
2022-10-08T17:59:44.896Z,66.00
2022-10-08T18:02:12.245Z,65.85
2022-10-08T18:04:41.796Z,66.19
2022-10-08T18:07:08.918Z,66.21
2022-10-08T18:09:36.066Z,66.23
2022-10-08T18:12:02.983Z,66.19
2022-10-08T18:14:29.950Z,66.33
2022-10-08T18:16:57.551Z,66.18
2022-10-08T18:19:30.475Z,66.25
2022-10-08T18:22:09.191Z,66.66
2022-10-08T18:27:19.888Z,66.55
2022-10-08T18:29:52.767Z,66.81
2022-10-08T18:32:19.798Z,66.41
2022-10-08T18:34:46.828Z,66.64
2022-10-08T18:37:13.810Z,66.61
2022-10-08T18:39:40.768Z,66.35
2022-10-08T18:42:07.801Z,66.79
2022-10-08T18:44:34.780Z,66.80
2022-10-08T18:47:05.259Z,66.82
2022-10-08T18:49:33.832Z,66.96
2022-10-08T18:52:01.630Z,66.70
2022-10-08T18:54:28.860Z,66.67
2022-10-08T18:56:56.966Z,66.96
2022-10-08T18:59:24.004Z,66.98
2022-10-08T19:01:51.970Z,66.91
2022-10-08T19:04:21.383Z,66.84
2022-10-08T19:06:49.253Z,66.94
2022-10-08T19:09:16.423Z,66.95
2022-10-08T19:11:47.847Z,67.14
2022-10-08T19:14:15.993Z,66.92
2022-10-08T19:16:43.688Z,66.92
2022-10-08T19:19:18.143Z,67.48
2022-10-08T19:21:45.225Z,67.19
2022-10-08T19:24:14.482Z,67.37
2022-10-08T19:26:41.751Z,67.51
2022-10-08T19:29:13.395Z,67.77
2022-10-08T19:31:40.370Z,67.78
2022-10-08T19:34:07.970Z,67.42
2022-10-08T19:36:36.785Z,67.98
2022-10-08T19:39:08.305Z,67.62
2022-10-08T19:41:35.278Z,68.48
2022-10-08T19:44:02.277Z,68.54
2022-10-08T19:46:29.316Z,68.39
2022-10-08T19:48:57.516Z,68.70
2022-10-08T19:51:24.986Z,68.20
2022-10-08T19:53:52.467Z,68.58
2022-10-08T19:56:20.815Z,68.23
2022-10-08T19:58:53.324Z,68.30
2022-10-08T20:01:24.422Z,68.61
2022-10-08T20:03:56.040Z,68.20
2022-10-08T20:06:24.985Z,68.58
2022-10-08T20:08:56.645Z,68.30
2022-10-08T20:11:23.897Z,68.56
2022-10-08T20:13:52.020Z,68.92
2022-10-08T20:16:20.947Z,69.23
2022-10-08T20:18:52.118Z,69.07
2022-10-08T20:21:19.821Z,68.81
2022-10-08T20:23:46.780Z,69.31
2022-10-08T20:26:19.577Z,69.07
2022-10-08T20:28:49.062Z,69.58
2022-10-08T20:31:17.897Z,69.37
2022-10-08T20:33:45.526Z,69.08
2022-10-08T20:36:14.219Z,69.61
2022-10-08T20:38:41.692Z,68.97
2022-10-08T20:41:09.036Z,69.65
2022-10-08T20:43:37.136Z,69.61
2022-10-08T20:46:05.474Z,70.06
2022-10-08T20:48:33.202Z,69.70
2022-10-08T20:51:10.945Z,69.83
2022-10-08T20:53:38.161Z,69.66
2022-10-08T20:56:06.502Z,70.06
2022-10-08T20:58:34.067Z,69.93
2022-10-08T21:01:05.638Z,69.92
2022-10-08T21:03:33.177Z,69.70
2022-10-08T21:06:00.759Z,70.20
2022-10-08T21:08:28.179Z,70.24
2022-10-08T21:10:55.225Z,69.76
2022-10-08T21:13:22.256Z,70.72
2022-10-08T21:15:49.282Z,70.86
2022-10-08T21:18:16.413Z,70.62
2022-10-08T21:20:43.787Z,70.90
2022-10-08T21:23:10.721Z,70.95
2022-10-08T21:25:37.913Z,70.85
2022-10-08T21:28:05.129Z,70.86
2022-10-08T21:30:32.277Z,71.00
2022-10-08T21:32:59.257Z,71.50
2022-10-08T21:35:26.280Z,70.98
2022-10-08T21:37:53.280Z,71.17
2022-10-08T21:40:20.354Z,71.44
2022-10-08T21:42:47.587Z,71.21
2022-10-08T21:45:14.713Z,71.35
2022-10-08T21:47:41.669Z,71.50
2022-10-08T21:50:08.941Z,71.53
2022-10-08T21:52:35.953Z,71.82
2022-10-08T21:55:02.901Z,72.02
2022-10-08T21:57:30.172Z,71.81
2022-10-08T21:59:57.110Z,72.09
2022-10-08T22:02:24.052Z,71.54
2022-10-08T22:04:51.153Z,71.17
2022-10-08T22:07:18.114Z,71.64
2022-10-08T22:09:45.335Z,71.68
2022-10-08T22:12:12.363Z,72.27
2022-10-08T22:14:39.329Z,71.69
2022-10-08T22:17:06.285Z,72.18
2022-10-08T22:19:34.899Z,72.61
2022-10-08T22:22:03.179Z,72.06
2022-10-08T22:24:31.545Z,72.77
2022-10-08T22:27:05.783Z,72.24
2022-10-08T22:29:35.532Z,72.63
2022-10-08T22:32:23.130Z,72.53
2022-10-08T22:34:51.992Z,72.62
2022-10-08T22:37:19.178Z,73.26
2022-10-08T22:39:48.212Z,73.23
2022-10-08T22:42:23.567Z,72.57
2022-10-08T22:44:50.722Z,72.62
2022-10-08T22:47:30.870Z,73.33
2022-10-08T22:50:08.681Z,72.84
2022-10-08T22:52:40.243Z,72.80
2022-10-08T22:55:11.745Z,73.47
2022-10-08T22:57:45.307Z,73.27
2022-10-08T23:00:12.941Z,72.97
2022-10-08T23:02:49.010Z,73.72
2022-10-08T23:05:19.229Z,73.04
2022-10-08T23:07:54.042Z,73.45
2022-10-08T23:10:28.192Z,73.90
2022-10-08T23:12:55.313Z,73.50
2022-10-08T23:15:25.055Z,73.81
2022-10-08T23:17:51.985Z,74.11
2022-10-08T23:20:21.143Z,74.15
2022-10-08T23:22:51.011Z,73.74
2022-10-08T23:25:18.550Z,74.35
2022-10-08T23:27:48.019Z,74.14
2022-10-08T23:30:38.413Z,74.11
2022-10-08T23:33:04.101Z,74.29
2022-10-08T23:35:38.491Z,74.06
2022-10-08T23:38:14.533Z,73.90
2022-10-08T23:40:41.738Z,74.44
2022-10-08T23:43:12.818Z,74.58
2022-10-08T23:45:53.106Z,74.26
2022-10-08T23:48:20.594Z,74.15
2022-10-08T23:50:51.580Z,74.57
2022-10-08T23:53:25.842Z,74.63
2022-10-08T23:55:53.995Z,74.31
2022-10-08T23:58:23.087Z,74.72
